createdAt,value
2019-03-19T00:01:19.799Z,3.20
2019-03-19T00:03:50.033Z,3.10
2019-03-19T00:06:22.605Z,3.10
2019-03-19T00:08:52.609Z,3.00
2019-03-19T00:11:22.842Z,3.00
2019-03-19T00:13:52.743Z,3.00
2019-03-19T00:16:23.902Z,2.90
2019-03-19T00:18:54.225Z,2.90
2019-03-19T00:21:24.547Z,2.90
2019-03-19T00:23:54.870Z,2.90
2019-03-19T00:26:25.193Z,2.90
2019-03-19T00:28:55.723Z,2.90
2019-03-19T00:31:26.045Z,2.80
2019-03-19T00:33:56.370Z,2.90
2019-03-19T00:36:26.900Z,2.80
2019-03-19T00:38:57.019Z,2.80
2019-03-19T00:41:27.340Z,2.80
2019-03-19T00:43:57.870Z,2.90
2019-03-19T00:46:28.193Z,2.80
2019-03-19T00:48:58.717Z,2.80
2019-03-19T00:51:30.684Z,2.90
2019-03-19T00:54:01.011Z,2.80
2019-03-19T00:56:50.792Z,2.90
2019-03-19T00:59:33.192Z,2.90
2019-03-19T01:02:03.727Z,2.80
2019-03-19T01:04:34.258Z,2.80
2019-03-19T01:07:04.785Z,2.80
2019-03-19T01:09:35.311Z,2.80
2019-03-19T01:12:05.634Z,2.80
2019-03-19T01:14:48.103Z,2.80
2019-03-19T01:17:18.366Z,2.80
2019-03-19T01:20:00.390Z,2.90
2019-03-19T01:22:30.687Z,2.80
2019-03-19T01:25:01.008Z,2.80
2019-03-19T01:27:31.332Z,2.80
2019-03-19T01:30:14.070Z,2.80
2019-03-19T01:32:56.787Z,2.80
2019-03-19T01:35:27.084Z,2.80
2019-03-19T01:37:57.407Z,2.80
2019-03-19T01:40:27.731Z,2.90
2019-03-19T01:42:58.056Z,3.00
2019-03-19T01:45:28.815Z,3.00
2019-03-19T01:47:59.112Z,3.00
2019-03-19T01:50:29.640Z,3.00
2019-03-19T01:52:59.762Z,3.00
2019-03-19T01:55:30.084Z,3.10
2019-03-19T01:58:00.408Z,3.10
2019-03-19T02:00:30.949Z,3.10
2019-03-19T02:03:01.259Z,3.20
2019-03-19T02:05:31.788Z,3.30
2019-03-19T02:08:02.112Z,3.30
2019-03-19T02:10:32.639Z,3.30
2019-03-19T02:13:02.963Z,3.30
2019-03-19T02:15:45.343Z,3.30
2019-03-19T02:18:15.693Z,3.30
2019-03-19T02:20:46.017Z,3.30
2019-03-19T02:23:16.751Z,3.30
2019-03-19T02:25:46.869Z,3.20
2019-03-19T02:28:18.835Z,3.20
2019-03-19T02:30:49.157Z,3.20
2019-03-19T02:33:19.481Z,3.20
2019-03-19T02:35:49.601Z,3.20
2019-03-19T02:38:19.925Z,3.10
2019-03-19T02:40:50.246Z,3.20
2019-03-19T02:43:22.837Z,3.10
2019-03-19T02:45:52.742Z,3.10
2019-03-19T02:48:23.060Z,3.10
2019-03-19T02:50:53.385Z,3.10
2019-03-19T02:53:23.712Z,3.10
2019-03-19T02:55:53.917Z,3.20
2019-03-19T02:58:24.764Z,3.20
2019-03-19T03:00:55.090Z,3.20
2019-03-19T03:03:25.412Z,3.20
2019-03-19T03:05:55.737Z,3.20
2019-03-19T03:08:26.469Z,3.20
2019-03-19T03:10:56.600Z,3.30
2019-03-19T03:13:27.116Z,3.30
2019-03-19T03:15:57.644Z,3.30
2019-03-19T03:18:27.968Z,3.40
2019-03-19T03:20:58.292Z,3.40
2019-03-19T03:23:28.617Z,3.40
2019-03-19T03:26:18.397Z,3.50
2019-03-19T03:28:48.931Z,3.50
2019-03-19T03:31:19.251Z,3.40
2019-03-19T03:33:49.784Z,3.30
2019-03-19T03:36:20.103Z,3.30
2019-03-19T03:39:02.910Z,3.30
2019-03-19T03:41:33.650Z,3.20
2019-03-19T03:44:03.973Z,3.10
2019-03-19T03:46:34.301Z,3.00
2019-03-19T03:49:04.832Z,2.90
2019-03-19T03:51:35.359Z,2.80
2019-03-19T03:54:05.682Z,2.70
2019-03-19T03:56:36.004Z,2.60
2019-03-19T03:59:06.334Z,2.50
2019-03-19T04:01:36.854Z,2.60
2019-03-19T04:04:07.589Z,2.60
2019-03-19T04:06:57.373Z,2.60
2019-03-19T04:09:28.304Z,2.60
2019-03-19T04:11:58.834Z,2.60
2019-03-19T04:14:29.361Z,2.50
2019-03-19T04:16:59.688Z,2.50
2019-03-19T04:19:30.213Z,2.60
2019-03-19T04:22:00.745Z,2.40
2019-03-19T04:24:31.066Z,2.40
2019-03-19T04:27:14.988Z,2.40
2019-03-19T04:29:33.147Z,2.30
2019-03-19T04:32:03.471Z,2.30
2019-03-19T04:34:34.002Z,2.30
2019-03-19T04:37:04.519Z,2.30
2019-03-19T04:39:34.855Z,2.30
2019-03-19T04:42:05.380Z,2.40
2019-03-19T04:44:35.499Z,2.40
2019-03-19T04:47:06.232Z,2.30
2019-03-19T04:49:36.764Z,2.30
2019-03-19T04:52:07.087Z,2.20
2019-03-19T04:54:49.406Z,2.20
2019-03-19T04:57:26.805Z,2.20
2019-03-19T04:59:51.778Z,2.10
2019-03-19T05:02:22.309Z,2.10
2019-03-19T05:04:52.837Z,2.10
2019-03-19T05:07:23.157Z,2.20
2019-03-19T05:09:53.278Z,2.20
2019-03-19T05:12:23.602Z,2.20
2019-03-19T05:14:55.973Z,2.20
2019-03-19T05:17:26.505Z,2.20
2019-03-19T05:19:56.826Z,2.30
2019-03-19T05:22:39.478Z,2.40
2019-03-19T05:25:10.682Z,2.40
2019-03-19T05:27:41.519Z,2.50
2019-03-19T05:30:19.624Z,2.70
2019-03-19T05:32:49.948Z,2.80
2019-03-19T05:35:20.272Z,2.90
2019-03-19T05:37:50.595Z,3.10
2019-03-19T05:40:20.919Z,3.20
2019-03-19T05:42:51.639Z,3.20
2019-03-19T05:45:21.770Z,3.30
2019-03-19T05:47:51.903Z,3.30
2019-03-19T05:50:23.936Z,3.40
2019-03-19T05:52:54.174Z,3.60
2019-03-19T05:55:24.499Z,3.80
2019-03-19T05:57:54.823Z,3.90
2019-03-19T06:00:29.234Z,3.90
2019-03-19T06:02:59.790Z,3.80
2019-03-19T06:05:30.300Z,3.80
2019-03-19T06:08:00.831Z,3.80
2019-03-19T06:10:31.151Z,3.90
2019-03-19T06:13:01.679Z,3.90
2019-03-19T06:15:31.799Z,3.90
2019-03-19T06:18:02.327Z,3.90
2019-03-19T06:20:32.653Z,3.90
2019-03-19T06:23:02.974Z,3.90
2019-03-19T06:25:33.502Z,4.00
2019-03-19T06:28:07.922Z,3.90
2019-03-19T06:30:38.246Z,3.90
2019-03-19T06:33:09.388Z,3.80
2019-03-19T06:35:39.509Z,3.90
2019-03-19T06:38:09.838Z,4.10
2019-03-19T06:40:40.155Z,4.50
2019-03-19T06:43:10.479Z,5.20
2019-03-19T06:45:41.007Z,5.80
2019-03-19T06:48:11.334Z,6.10
2019-03-19T06:50:45.484Z,6.30
2019-03-19T06:53:15.052Z,6.50
2019-03-19T06:55:45.579Z,6.30
2019-03-19T06:58:15.698Z,6.50
2019-03-19T07:00:46.022Z,6.80
2019-03-19T07:03:16.550Z,7.00
2019-03-19T07:05:47.283Z,6.80
2019-03-19T07:08:17.607Z,7.00
2019-03-19T07:10:47.933Z,6.90
2019-03-19T07:13:18.255Z,6.90
2019-03-19T07:15:48.579Z,7.10
2019-03-19T07:18:18.698Z,7.30
2019-03-19T07:20:49.026Z,7.50
2019-03-19T07:23:19.352Z,8.00
2019-03-19T07:25:49.669Z,8.30
2019-03-19T07:28:22.385Z,8.00
2019-03-19T07:30:52.366Z,7.80
2019-03-19T07:33:22.690Z,7.90
2019-03-19T07:35:53.013Z,8.10
2019-03-19T07:38:23.544Z,8.50
2019-03-19T07:40:53.867Z,8.90
2019-03-19T07:43:24.396Z,8.70
2019-03-19T07:45:54.720Z,8.30
2019-03-19T07:48:24.835Z,8.10
2019-03-19T07:50:55.161Z,8.10
2019-03-19T07:53:25.484Z,8.10
2019-03-19T07:55:55.807Z,8.50
2019-03-19T07:58:36.075Z,9.10
2019-03-19T08:00:58.093Z,9.60
2019-03-19T08:03:28.416Z,10.10
2019-03-19T08:05:58.743Z,9.80
2019-03-19T08:08:29.063Z,9.80
2019-03-19T08:10:59.387Z,9.70
2019-03-19T08:13:29.915Z,9.50
2019-03-19T08:16:00.241Z,9.50
2019-03-19T08:18:30.769Z,9.70
2019-03-19T08:21:01.102Z,10.00
2019-03-19T08:23:31.415Z,9.80
2019-03-19T08:26:01.743Z,10.40
2019-03-19T08:28:33.698Z,10.60
2019-03-19T08:31:04.025Z,11.00
2019-03-19T08:33:34.554Z,11.60
2019-03-19T08:36:09.279Z,12.20
2019-03-19T08:38:36.635Z,12.00
2019-03-19T08:41:06.962Z,12.10
2019-03-19T08:43:37.489Z,12.00
2019-03-19T08:46:08.016Z,11.80
2019-03-19T08:48:38.539Z,10.80
2019-03-19T08:51:08.662Z,10.30
2019-03-19T08:53:38.986Z,10.80
2019-03-19T08:56:09.311Z,10.90
2019-03-19T08:58:39.637Z,11.80
2019-03-19T09:01:11.562Z,12.10
2019-03-19T09:03:42.539Z,11.40
2019-03-19T09:06:13.067Z,11.10
2019-03-19T09:08:43.387Z,11.00
2019-03-19T09:11:14.121Z,11.10
2019-03-19T09:13:44.447Z,11.10
2019-03-19T09:16:14.769Z,11.50
2019-03-19T09:18:45.098Z,11.80
2019-03-19T09:21:16.237Z,11.60
2019-03-19T09:23:46.557Z,11.40
2019-03-19T09:26:16.882Z,10.40
2019-03-19T09:28:47.410Z,10.10
2019-03-19T09:31:17.938Z,10.90
2019-03-19T09:33:48.262Z,10.80
2019-03-19T09:36:18.795Z,10.80
2019-03-19T09:38:49.114Z,10.60
2019-03-19T09:41:19.438Z,10.30
2019-03-19T09:43:49.764Z,10.40
2019-03-19T09:46:20.290Z,10.80
2019-03-19T09:48:50.614Z,11.40
2019-03-19T09:51:20.938Z,11.80
2019-03-19T09:53:51.262Z,12.90
2019-03-19T09:56:21.589Z,12.30
2019-03-19T09:58:51.909Z,11.80
2019-03-19T10:01:22.438Z,12.00
2019-03-19T10:03:52.967Z,12.80
2019-03-19T10:06:23.292Z,13.50
2019-03-19T10:08:54.433Z,13.40
2019-03-19T10:11:24.558Z,12.70
2019-03-19T10:13:54.878Z,12.20
2019-03-19T10:16:25.203Z,12.10
2019-03-19T10:18:55.727Z,12.10
2019-03-19T10:21:26.256Z,11.50
2019-03-19T10:23:56.580Z,10.70
2019-03-19T10:26:27.111Z,10.10
2019-03-19T10:28:57.433Z,9.90
2019-03-19T10:31:27.757Z,9.60
2019-03-19T10:33:58.079Z,9.30
2019-03-19T10:36:28.403Z,9.20
2019-03-19T10:38:58.727Z,8.80
2019-03-19T10:41:29.051Z,8.70
2019-03-19T10:43:59.169Z,8.40
2019-03-19T10:46:29.697Z,8.40
2019-03-19T10:49:00.023Z,8.70
2019-03-19T10:51:30.759Z,9.60
2019-03-19T10:54:01.287Z,11.10
2019-03-19T10:56:31.610Z,10.90
2019-03-19T10:59:02.137Z,10.20
2019-03-19T11:01:32.460Z,9.70
2019-03-19T11:04:02.988Z,9.60
2019-03-19T11:06:33.517Z,9.60
2019-03-19T11:09:05.275Z,9.80
2019-03-19T11:11:35.803Z,10.30
2019-03-19T11:14:06.336Z,10.20
2019-03-19T11:16:36.859Z,10.10
2019-03-19T11:19:07.389Z,9.80
2019-03-19T11:21:37.714Z,9.50
2019-03-19T11:24:08.036Z,9.20
2019-03-19T11:26:38.155Z,9.10
2019-03-19T11:29:08.480Z,9.00
2019-03-19T11:31:39.009Z,8.80
2019-03-19T11:34:09.130Z,9.00
2019-03-19T11:36:39.449Z,9.10
2019-03-19T11:39:10.189Z,9.30
2019-03-19T11:41:40.916Z,10.50
2019-03-19T11:44:11.037Z,12.50
2019-03-19T11:46:41.563Z,14.40
2019-03-19T11:49:11.685Z,14.80
2019-03-19T11:51:42.009Z,15.10
2019-03-19T11:54:12.124Z,14.90
2019-03-19T11:56:42.452Z,14.60
2019-03-19T11:59:12.772Z,15.40
2019-03-19T12:01:43.097Z,15.80
2019-03-19T12:04:13.420Z,16.20
2019-03-19T12:06:43.949Z,17.10
2019-03-19T12:09:14.272Z,17.10
2019-03-19T12:11:44.595Z,15.20
2019-03-19T12:14:14.919Z,13.20
2019-03-19T12:16:45.448Z,12.70
2019-03-19T12:19:15.569Z,14.20
2019-03-19T12:21:45.891Z,13.60
2019-03-19T12:24:16.208Z,14.40
2019-03-19T12:26:46.743Z,16.60
2019-03-19T12:29:17.068Z,17.30
2019-03-19T12:31:59.020Z,15.60
2019-03-19T12:34:29.390Z,14.40
2019-03-19T12:36:59.916Z,14.90
2019-03-19T12:39:30.240Z,16.50
2019-03-19T12:42:00.564Z,15.60
2019-03-19T12:44:30.889Z,15.30
2019-03-19T12:47:01.416Z,14.20
2019-03-19T12:49:31.739Z,14.30
2019-03-19T12:52:02.064Z,15.10
2019-03-19T12:54:32.387Z,15.60
2019-03-19T12:57:02.916Z,15.70
2019-03-19T12:59:33.240Z,14.90
2019-03-19T13:02:03.769Z,14.50
2019-03-19T13:04:34.094Z,14.00
2019-03-19T13:07:04.417Z,13.50
2019-03-19T13:09:34.739Z,13.00
2019-03-19T13:12:05.063Z,12.50
2019-03-19T13:14:43.171Z,12.40
2019-03-19T13:17:19.639Z,12.50
2019-03-19T13:19:49.847Z,12.50
2019-03-19T13:22:20.699Z,13.20
2019-03-19T13:24:51.019Z,13.80
2019-03-19T13:27:21.549Z,14.70
2019-03-19T13:29:51.872Z,14.60
2019-03-19T13:32:22.603Z,12.90
2019-03-19T13:34:52.927Z,12.00
2019-03-19T13:37:23.250Z,10.90
2019-03-19T13:39:53.574Z,10.30
2019-03-19T13:42:24.102Z,10.30
2019-03-19T13:44:54.426Z,10.80
2019-03-19T13:47:24.955Z,10.60
2019-03-19T13:49:55.279Z,10.70
2019-03-19T13:52:25.602Z,11.70
2019-03-19T13:54:56.131Z,12.90
2019-03-19T13:57:29.117Z,13.80
2019-03-19T13:59:59.327Z,14.10
2019-03-19T14:02:29.566Z,14.30
2019-03-19T14:04:59.558Z,14.60
2019-03-19T14:07:29.554Z,14.90
2019-03-19T14:10:00.622Z,14.70
2019-03-19T14:12:31.277Z,14.40
2019-03-19T14:15:01.606Z,14.20
2019-03-19T14:17:31.902Z,14.50
2019-03-19T14:20:01.869Z,14.40
2019-03-19T14:22:32.164Z,14.40
2019-03-19T14:25:02.273Z,14.60
2019-03-19T14:27:32.503Z,14.70
2019-03-19T14:30:02.572Z,14.80
2019-03-19T14:32:32.465Z,14.90
2019-03-19T14:35:02.461Z,13.80
2019-03-19T14:37:32.467Z,13.10
2019-03-19T14:40:05.490Z,12.80
2019-03-19T14:42:35.388Z,11.50
2019-03-19T14:45:07.753Z,10.60
2019-03-19T14:47:38.080Z,10.40
2019-03-19T14:50:11.825Z,10.00
2019-03-19T14:52:43.811Z,9.90
2019-03-19T14:55:13.609Z,10.00
2019-03-19T14:57:43.501Z,10.00
2019-03-19T15:00:17.924Z,9.90
2019-03-19T15:02:48.149Z,9.90
2019-03-19T15:05:18.300Z,9.80
2019-03-19T15:07:48.202Z,9.80
2019-03-19T15:10:24.336Z,9.70
2019-03-19T15:12:54.356Z,9.60
2019-03-19T15:15:24.310Z,9.60
2019-03-19T15:17:54.284Z,9.60
2019-03-19T15:20:26.518Z,9.60
2019-03-19T15:22:56.456Z,10.50
2019-03-19T15:25:26.510Z,12.10
2019-03-19T15:27:56.745Z,12.40
2019-03-19T15:30:27.401Z,11.60
2019-03-19T15:32:57.329Z,10.10
2019-03-19T15:35:28.417Z,9.50
2019-03-19T15:37:58.325Z,9.20
2019-03-19T15:40:28.313Z,9.60
2019-03-19T15:43:00.679Z,9.90
2019-03-19T15:45:33.243Z,9.50
2019-03-19T15:48:03.721Z,9.00
2019-03-19T15:50:33.739Z,8.80
2019-03-19T15:53:05.104Z,8.50
2019-03-19T15:55:36.103Z,8.30
2019-03-19T15:58:06.579Z,8.20
2019-03-19T16:00:36.587Z,8.10
2019-03-19T16:03:06.502Z,9.00
2019-03-19T16:05:36.544Z,8.00
2019-03-19T16:08:06.448Z,7.90
2019-03-19T16:10:36.350Z,7.80
2019-03-19T16:13:06.365Z,7.80
2019-03-19T16:15:36.243Z,7.80
2019-03-19T16:18:06.290Z,7.70
2019-03-19T16:20:36.189Z,7.70
2019-03-19T16:23:06.142Z,7.70
2019-03-19T16:25:36.028Z,7.70
2019-03-19T16:28:05.986Z,7.60
2019-03-19T16:30:35.867Z,7.50
2019-03-19T16:33:05.893Z,7.50
2019-03-19T16:35:36.030Z,7.40
2019-03-19T16:38:05.955Z,7.30
2019-03-19T16:40:35.838Z,7.20
2019-03-19T16:43:05.939Z,7.10
2019-03-19T16:45:36.266Z,7.00
2019-03-19T16:48:06.287Z,6.90
2019-03-19T16:50:36.311Z,6.90
2019-03-19T16:53:06.201Z,6.80
2019-03-19T16:55:36.146Z,6.80
2019-03-19T16:58:06.032Z,6.70
2019-03-19T17:00:35.982Z,6.60
2019-03-19T17:03:05.874Z,6.60
2019-03-19T17:05:35.756Z,6.50
2019-03-19T17:08:05.711Z,6.40
2019-03-19T17:10:35.607Z,6.20
2019-03-19T17:13:05.662Z,6.30
2019-03-19T17:15:35.549Z,6.20
2019-03-19T17:18:05.584Z,6.20
2019-03-19T17:20:35.536Z,6.10
2019-03-19T17:23:05.446Z,6.00
2019-03-19T17:25:35.399Z,5.90
2019-03-19T17:28:05.395Z,5.90
2019-03-19T17:30:36.327Z,5.80
2019-03-19T17:33:06.319Z,5.70
2019-03-19T17:35:36.364Z,5.70
2019-03-19T17:38:06.252Z,5.60
2019-03-19T17:40:41.415Z,5.60
2019-03-19T17:43:07.907Z,5.50
2019-03-19T17:45:37.841Z,5.40
2019-03-19T17:48:15.653Z,5.30
2019-03-19T17:50:41.953Z,5.30
2019-03-19T17:53:11.849Z,5.30
2019-03-19T17:55:42.186Z,5.30
2019-03-19T17:58:12.198Z,5.20
2019-03-19T18:00:43.745Z,5.10
2019-03-19T18:03:13.645Z,5.00
2019-03-19T18:05:43.701Z,5.00
2019-03-19T18:08:13.592Z,4.90
2019-03-19T18:10:43.547Z,4.90
2019-03-19T18:13:13.586Z,4.80
2019-03-19T18:15:43.627Z,4.70
2019-03-19T18:18:13.590Z,4.60
2019-03-19T18:20:43.529Z,4.50
2019-03-19T18:23:13.575Z,4.50
2019-03-19T18:25:43.485Z,4.40
2019-03-19T18:28:13.534Z,4.40
2019-03-19T18:30:43.428Z,4.40
2019-03-19T18:33:13.356Z,4.30
2019-03-19T18:35:43.370Z,4.20
2019-03-19T18:38:13.316Z,4.20
2019-03-19T18:40:43.364Z,4.10
2019-03-19T18:43:13.328Z,4.10
2019-03-19T18:45:43.334Z,4.00
2019-03-19T18:48:13.402Z,4.00
2019-03-19T18:50:43.418Z,4.00
2019-03-19T18:53:13.500Z,3.90
2019-03-19T18:55:43.491Z,3.80
2019-03-19T18:58:13.560Z,3.80
2019-03-19T19:00:43.947Z,3.80
2019-03-19T19:03:13.894Z,3.70
2019-03-19T19:05:44.965Z,3.70
2019-03-19T19:08:14.961Z,3.70
2019-03-19T19:10:45.146Z,3.70
2019-03-19T19:13:15.154Z,3.60
2019-03-19T19:15:45.194Z,3.50
2019-03-19T19:18:15.238Z,3.50
2019-03-19T19:20:45.130Z,3.40
2019-03-19T19:23:15.173Z,3.40
2019-03-19T19:25:45.174Z,3.20
2019-03-19T19:28:15.130Z,3.20
2019-03-19T19:30:45.031Z,3.10
2019-03-19T19:33:15.876Z,3.00
2019-03-19T19:35:45.814Z,3.00
2019-03-19T19:38:16.051Z,3.00
2019-03-19T19:40:45.944Z,3.00
2019-03-19T19:43:16.086Z,2.80
2019-03-19T19:45:46.155Z,2.80
2019-03-19T19:48:17.616Z,2.70
2019-03-19T19:50:48.015Z,2.70
2019-03-19T19:53:18.313Z,2.60
2019-03-19T19:55:48.380Z,2.60
2019-03-19T19:58:18.375Z,2.40
2019-03-19T20:00:48.324Z,2.30
2019-03-19T20:03:20.107Z,2.20
2019-03-19T20:05:50.800Z,2.20
2019-03-19T20:08:21.328Z,2.20
2019-03-19T20:10:51.652Z,2.20
2019-03-19T20:13:22.185Z,2.20
2019-03-19T20:15:52.394Z,2.30
2019-03-19T20:18:22.828Z,2.20
2019-03-19T20:20:53.356Z,2.20
2019-03-19T20:23:23.680Z,2.20
2019-03-19T20:25:54.005Z,2.20
2019-03-19T20:28:24.537Z,2.20
2019-03-19T20:30:54.858Z,2.20
2019-03-19T20:33:25.314Z,2.20
2019-03-19T20:36:08.470Z,2.20
2019-03-19T20:38:40.983Z,2.20
2019-03-19T20:41:11.305Z,2.20
2019-03-19T20:43:41.633Z,2.10
2019-03-19T20:46:12.158Z,2.00
2019-03-19T20:48:42.484Z,2.00
2019-03-19T20:51:12.810Z,2.00
2019-03-19T20:53:43.131Z,2.00
2019-03-19T20:56:13.658Z,1.90
2019-03-19T20:58:44.186Z,1.90
2019-03-19T21:01:18.078Z,1.80
2019-03-19T21:03:48.931Z,1.70
2019-03-19T21:06:19.459Z,1.80
2019-03-19T21:08:50.195Z,1.80
2019-03-19T21:11:21.949Z,1.80
2019-03-19T21:13:52.062Z,1.70
2019-03-19T21:16:22.597Z,1.70
2019-03-19T21:18:52.926Z,1.80
2019-03-19T21:21:23.452Z,1.80
2019-03-19T21:23:54.593Z,1.90
2019-03-19T21:26:27.752Z,1.80
2019-03-19T21:28:58.727Z,1.90
2019-03-19T21:31:30.894Z,1.90
2019-03-19T21:34:01.838Z,1.90
2019-03-19T21:36:32.151Z,1.90
2019-03-19T21:39:02.475Z,2.00
2019-03-19T21:41:32.798Z,1.90
2019-03-19T21:44:03.121Z,1.90
2019-03-19T21:46:33.445Z,1.90
2019-03-19T21:49:04.178Z,1.90
2019-03-19T21:51:34.502Z,2.00
2019-03-19T21:54:04.825Z,2.00
2019-03-19T21:56:35.368Z,2.00
2019-03-19T21:59:05.678Z,2.00
2019-03-19T22:01:36.206Z,1.90
2019-03-19T22:04:06.325Z,1.90
2019-03-19T22:06:36.655Z,1.90
2019-03-19T22:09:07.791Z,1.90
2019-03-19T22:11:38.118Z,1.90
2019-03-19T22:14:08.650Z,1.90
2019-03-19T22:16:40.811Z,1.90
2019-03-19T22:19:11.134Z,1.90
2019-03-19T22:21:42.073Z,1.80
2019-03-19T22:24:12.813Z,1.80
2019-03-19T22:26:42.927Z,1.70
2019-03-19T22:29:13.659Z,1.60
2019-03-19T22:31:44.187Z,1.60
2019-03-19T22:34:14.924Z,1.70
2019-03-19T22:36:45.250Z,1.70
2019-03-19T22:39:15.569Z,1.60
2019-03-19T22:41:45.893Z,1.60
2019-03-19T22:44:16.219Z,1.50
2019-03-19T22:46:46.950Z,1.60
2019-03-19T22:49:17.274Z,1.50
2019-03-19T22:51:47.597Z,1.50
2019-03-19T22:54:17.920Z,1.50
2019-03-19T22:56:48.244Z,1.50
2019-03-19T22:59:18.773Z,1.50
2019-03-19T23:01:48.891Z,1.50
2019-03-19T23:04:26.979Z,1.40
2019-03-19T23:06:52.610Z,1.50
2019-03-19T23:09:22.938Z,1.40
2019-03-19T23:11:53.258Z,1.40
2019-03-19T23:14:24.196Z,1.40
2019-03-19T23:17:13.978Z,1.50
2019-03-19T23:19:44.299Z,1.50
2019-03-19T23:22:14.623Z,1.50
2019-03-19T23:24:44.946Z,1.50
2019-03-19T23:27:15.067Z,1.40
2019-03-19T23:29:45.390Z,1.40
2019-03-19T23:32:16.122Z,1.40
2019-03-19T23:34:46.651Z,1.40
2019-03-19T23:37:16.978Z,1.30
2019-03-19T23:39:47.919Z,1.30
2019-03-19T23:42:18.441Z,1.30
2019-03-19T23:44:48.765Z,1.30
2019-03-19T23:47:19.091Z,1.20
2019-03-19T23:49:49.412Z,1.20
2019-03-19T23:52:19.737Z,1.20
2019-03-19T23:54:50.060Z,1.20
2019-03-19T23:57:20.384Z,1.20
2019-03-19T23:59:50.709Z,1.30
